sensor_id;sensor_type;location;lat;lon;timestamp;temperature;humidity
21207;DHT22;10761;48.532;8.026;2023-05-10T00:00:07;13.60;99.90
21207;DHT22;10761;48.532;8.026;2023-05-10T00:02:34;13.60;99.90
21207;DHT22;10761;48.532;8.026;2023-05-10T00:05:00;13.60;99.90
21207;DHT22;10761;48.532;8.026;2023-05-10T00:07:26;13.60;99.90
21207;DHT22;10761;48.532;8.026;2023-05-10T00:09:52;13.60;99.90
21207;DHT22;10761;48.532;8.026;2023-05-10T00:12:17;13.50;99.90
21207;DHT22;10761;48.532;8.026;2023-05-10T00:14:43;13.50;99.90
21207;DHT22;10761;48.532;8.026;2023-05-10T00:17:08;13.60;99.90
21207;DHT22;10761;48.532;8.026;2023-05-10T00:19:34;13.60;99.90
21207;DHT22;10761;48.532;8.026;2023-05-10T00:22:00;13.60;99.90
21207;DHT22;10761;48.532;8.026;2023-05-10T00:24:25;13.60;99.90
21207;DHT22;10761;48.532;8.026;2023-05-10T00:26:51;13.60;99.90
21207;DHT22;10761;48.532;8.026;2023-05-10T00:29:16;13.60;99.90
21207;DHT22;10761;48.532;8.026;2023-05-10T00:31:42;13.50;99.90
21207;DHT22;10761;48.532;8.026;2023-05-10T00:34:08;13.50;99.90
21207;DHT22;10761;48.532;8.026;2023-05-10T00:36:33;13.50;99.90
21207;DHT22;10761;48.532;8.026;2023-05-10T00:38:59;13.50;99.90
21207;DHT22;10761;48.532;8.026;2023-05-10T00:41:24;13.50;99.90
21207;DHT22;10761;48.532;8.026;2023-05-10T00:43:50;13.50;99.90
21207;DHT22;10761;48.532;8.026;2023-05-10T00:46:16;13.50;99.90
21207;DHT22;10761;48.532;8.026;2023-05-10T00:48:43;13.60;99.90
21207;DHT22;10761;48.532;8.026;2023-05-10T00:51:08;13.50;99.90
21207;DHT22;10761;48.532;8.026;2023-05-10T00:53:34;13.50;99.90
21207;DHT22;10761;48.532;8.026;2023-05-10T00:56:01;13.60;99.90
21207;DHT22;10761;48.532;8.026;2023-05-10T00:58:27;13.50;99.90
21207;DHT22;10761;48.532;8.026;2023-05-10T01:00:55;13.60;99.90
21207;DHT22;10761;48.532;8.026;2023-05-10T01:03:21;13.60;99.90
21207;DHT22;10761;48.532;8.026;2023-05-10T01:05:47;13.60;99.90
21207;DHT22;10761;48.532;8.026;2023-05-10T01:11:35;13.50;99.90
21207;DHT22;10761;48.532;8.026;2023-05-10T01:14:02;13.60;99.90
21207;DHT22;10761;48.532;8.026;2023-05-10T01:16:32;13.60;99.90
21207;DHT22;10761;48.532;8.026;2023-05-10T01:18:58;13.60;99.90
21207;DHT22;10761;48.532;8.026;2023-05-10T01:21:30;13.50;99.90
21207;DHT22;10761;48.532;8.026;2023-05-10T01:34:44;13.50;99.90
21207;DHT22;10761;48.532;8.026;2023-05-10T01:37:16;13.50;99.90
21207;DHT22;10761;48.532;8.026;2023-05-10T01:40:00;13.50;99.90
21207;DHT22;10761;48.532;8.026;2023-05-10T01:42:30;13.50;99.90
21207;DHT22;10761;48.532;8.026;2023-05-10T01:45:05;13.50;99.90
21207;DHT22;10761;48.532;8.026;2023-05-10T01:47:40;13.40;99.90
21207;DHT22;10761;48.532;8.026;2023-05-10T01:50:10;13.40;99.90
21207;DHT22;10761;48.532;8.026;2023-05-10T01:52:42;13.40;99.90
21207;DHT22;10761;48.532;8.026;2023-05-10T01:55:13;13.40;99.90
21207;DHT22;10761;48.532;8.026;2023-05-10T01:57:40;13.40;99.90
21207;DHT22;10761;48.532;8.026;2023-05-10T02:00:08;13.40;99.90
21207;DHT22;10761;48.532;8.026;2023-05-10T02:02:39;13.40;99.90
21207;DHT22;10761;48.532;8.026;2023-05-10T02:05:07;13.40;99.90
21207;DHT22;10761;48.532;8.026;2023-05-10T02:07:35;13.40;99.90
21207;DHT22;10761;48.532;8.026;2023-05-10T02:10:03;13.40;99.90
21207;DHT22;10761;48.532;8.026;2023-05-10T02:12:30;13.40;99.90
21207;DHT22;10761;48.532;8.026;2023-05-10T02:14:57;13.30;99.90
21207;DHT22;10761;48.532;8.026;2023-05-10T02:17:25;13.30;99.90
21207;DHT22;10761;48.532;8.026;2023-05-10T02:19:51;13.20;99.90
21207;DHT22;10761;48.532;8.026;2023-05-10T02:22:18;13.20;99.90
21207;DHT22;10761;48.532;8.026;2023-05-10T02:24:45;13.10;99.90
21207;DHT22;10761;48.532;8.026;2023-05-10T02:27:12;13.10;99.90
21207;DHT22;10761;48.532;8.026;2023-05-10T02:29:39;13.00;99.90
21207;DHT22;10761;48.532;8.026;2023-05-10T02:32:06;13.00;99.90
21207;DHT22;10761;48.532;8.026;2023-05-10T02:34:32;13.00;99.90
21207;DHT22;10761;48.532;8.026;2023-05-10T02:36:59;13.00;99.90
21207;DHT22;10761;48.532;8.026;2023-05-10T02:39:26;13.10;99.90
21207;DHT22;10761;48.532;8.026;2023-05-10T02:41:53;13.10;99.90
21207;DHT22;10761;48.532;8.026;2023-05-10T02:44:21;13.10;99.90
21207;DHT22;10761;48.532;8.026;2023-05-10T02:46:48;13.10;99.90
21207;DHT22;10761;48.532;8.026;2023-05-10T02:49:14;13.20;99.90
21207;DHT22;10761;48.532;8.026;2023-05-10T02:51:53;13.20;99.90
21207;DHT22;10761;48.532;8.026;2023-05-10T02:54:27;13.20;99.90
21207;DHT22;10761;48.532;8.026;2023-05-10T02:57:00;13.20;99.90
21207;DHT22;10761;48.532;8.026;2023-05-10T02:59:29;13.20;99.90
21207;DHT22;10761;48.532;8.026;2023-05-10T03:01:54;13.30;99.90
21207;DHT22;10761;48.532;8.026;2023-05-10T03:04:20;13.30;99.90
21207;DHT22;10761;48.532;8.026;2023-05-10T03:06:46;13.20;99.90
21207;DHT22;10761;48.532;8.026;2023-05-10T03:09:12;13.10;99.90
21207;DHT22;10761;48.532;8.026;2023-05-10T03:11:53;13.10;99.90
21207;DHT22;10761;48.532;8.026;2023-05-10T03:14:31;13.10;99.90
21207;DHT22;10761;48.532;8.026;2023-05-10T03:20:04;13.10;99.90
21207;DHT22;10761;48.532;8.026;2023-05-10T03:22:46;13.10;99.90
21207;DHT22;10761;48.532;8.026;2023-05-10T03:25:15;13.10;99.90
21207;DHT22;10761;48.532;8.026;2023-05-10T03:27:43;13.10;99.90
21207;DHT22;10761;48.532;8.026;2023-05-10T03:30:11;13.10;99.90
21207;DHT22;10761;48.532;8.026;2023-05-10T03:32:37;13.10;99.90
21207;DHT22;10761;48.532;8.026;2023-05-10T03:35:08;13.10;99.90
21207;DHT22;10761;48.532;8.026;2023-05-10T03:37:34;13.10;99.90
21207;DHT22;10761;48.532;8.026;2023-05-10T03:40:00;13.10;99.90
21207;DHT22;10761;48.532;8.026;2023-05-10T03:42:25;13.10;99.90
21207;DHT22;10761;48.532;8.026;2023-05-10T03:44:51;13.10;99.90
21207;DHT22;10761;48.532;8.026;2023-05-10T03:47:16;13.20;99.90
21207;DHT22;10761;48.532;8.026;2023-05-10T03:49:42;13.10;99.90
21207;DHT22;10761;48.532;8.026;2023-05-10T03:52:07;13.10;99.90
21207;DHT22;10761;48.532;8.026;2023-05-10T03:54:33;13.10;99.90
21207;DHT22;10761;48.532;8.026;2023-05-10T03:56:59;13.10;99.90
21207;DHT22;10761;48.532;8.026;2023-05-10T03:59:26;13.10;99.90
21207;DHT22;10761;48.532;8.026;2023-05-10T04:01:51;13.00;99.90
21207;DHT22;10761;48.532;8.026;2023-05-10T04:04:17;13.10;99.90
21207;DHT22;10761;48.532;8.026;2023-05-10T04:06:44;13.00;99.90
21207;DHT22;10761;48.532;8.026;2023-05-10T04:09:10;13.00;99.90
21207;DHT22;10761;48.532;8.026;2023-05-10T04:11:36;13.00;99.90
21207;DHT22;10761;48.532;8.026;2023-05-10T04:14:01;13.00;99.90
21207;DHT22;10761;48.532;8.026;2023-05-10T04:16:27;13.00;99.90
21207;DHT22;10761;48.532;8.026;2023-05-10T04:18:53;13.00;99.90
21207;DHT22;10761;48.532;8.026;2023-05-10T04:21:18;12.90;99.90
21207;DHT22;10761;48.532;8.026;2023-05-10T04:23:44;12.90;99.90
21207;DHT22;10761;48.532;8.026;2023-05-10T04:26:10;12.90;99.90
21207;DHT22;10761;48.532;8.026;2023-05-10T04:28:35;12.90;99.90
21207;DHT22;10761;48.532;8.026;2023-05-10T04:31:06;12.90;99.90
21207;DHT22;10761;48.532;8.026;2023-05-10T04:33:32;12.90;99.90
21207;DHT22;10761;48.532;8.026;2023-05-10T04:35:58;13.00;99.90
21207;DHT22;10761;48.532;8.026;2023-05-10T04:38:24;13.00;99.90
21207;DHT22;10761;48.532;8.026;2023-05-10T04:40:49;13.00;99.90
21207;DHT22;10761;48.532;8.026;2023-05-10T04:43:15;13.00;99.90
21207;DHT22;10761;48.532;8.026;2023-05-10T04:45:41;13.10;99.90
21207;DHT22;10761;48.532;8.026;2023-05-10T04:48:06;13.10;99.90
21207;DHT22;10761;48.532;8.026;2023-05-10T04:50:33;13.00;99.90
21207;DHT22;10761;48.532;8.026;2023-05-10T04:52:58;13.10;99.90
21207;DHT22;10761;48.532;8.026;2023-05-10T04:55:24;13.10;99.90
21207;DHT22;10761;48.532;8.026;2023-05-10T04:57:50;13.10;99.90
21207;DHT22;10761;48.532;8.026;2023-05-10T05:00:16;13.10;99.90
21207;DHT22;10761;48.532;8.026;2023-05-10T05:02:45;13.10;99.90
21207;DHT22;10761;48.532;8.026;2023-05-10T05:05:11;13.10;99.90
21207;DHT22;10761;48.532;8.026;2023-05-10T05:07:37;13.10;99.90
21207;DHT22;10761;48.532;8.026;2023-05-10T05:10:07;13.00;99.90
21207;DHT22;10761;48.532;8.026;2023-05-10T05:12:34;13.00;99.90
21207;DHT22;10761;48.532;8.026;2023-05-10T05:15:00;13.00;99.90
21207;DHT22;10761;48.532;8.026;2023-05-10T05:17:25;12.90;99.90
21207;DHT22;10761;48.532;8.026;2023-05-10T05:19:51;12.90;99.90
21207;DHT22;10761;48.532;8.026;2023-05-10T05:22:17;12.90;99.90
21207;DHT22;10761;48.532;8.026;2023-05-10T05:24:42;12.90;99.90
21207;DHT22;10761;48.532;8.026;2023-05-10T05:27:08;12.90;99.90
21207;DHT22;10761;48.532;8.026;2023-05-10T05:29:34;12.90;99.90
21207;DHT22;10761;48.532;8.026;2023-05-10T05:32:00;12.90;99.90
21207;DHT22;10761;48.532;8.026;2023-05-10T05:34:25;12.90;99.90
21207;DHT22;10761;48.532;8.026;2023-05-10T05:36:51;12.90;99.90
21207;DHT22;10761;48.532;8.026;2023-05-10T05:39:17;12.90;99.90
21207;DHT22;10761;48.532;8.026;2023-05-10T05:41:42;12.90;99.90
21207;DHT22;10761;48.532;8.026;2023-05-10T05:44:08;12.90;99.90
21207;DHT22;10761;48.532;8.026;2023-05-10T05:46:34;12.90;99.90
21207;DHT22;10761;48.532;8.026;2023-05-10T05:49:00;13.00;99.90
21207;DHT22;10761;48.532;8.026;2023-05-10T05:51:25;13.00;99.90
21207;DHT22;10761;48.532;8.026;2023-05-10T05:53:51;13.10;99.90
21207;DHT22;10761;48.532;8.026;2023-05-10T05:56:16;13.10;99.90
21207;DHT22;10761;48.532;8.026;2023-05-10T05:58:50;13.10;99.90
21207;DHT22;10761;48.532;8.026;2023-05-10T06:01:16;13.10;99.90
21207;DHT22;10761;48.532;8.026;2023-05-10T06:03:42;13.10;99.90
21207;DHT22;10761;48.532;8.026;2023-05-10T06:06:07;13.10;99.90
21207;DHT22;10761;48.532;8.026;2023-05-10T06:08:33;13.20;99.90
21207;DHT22;10761;48.532;8.026;2023-05-10T06:11:00;13.20;99.90
21207;DHT22;10761;48.532;8.026;2023-05-10T06:13:26;13.20;99.90
21207;DHT22;10761;48.532;8.026;2023-05-10T06:15:58;13.30;99.90
21207;DHT22;10761;48.532;8.026;2023-05-10T06:18:23;13.30;99.90
21207;DHT22;10761;48.532;8.026;2023-05-10T06:20:50;13.40;99.90
21207;DHT22;10761;48.532;8.026;2023-05-10T06:23:15;13.50;99.90
21207;DHT22;10761;48.532;8.026;2023-05-10T06:25:41;13.60;99.90
21207;DHT22;10761;48.532;8.026;2023-05-10T06:28:06;13.60;99.90
21207;DHT22;10761;48.532;8.026;2023-05-10T06:30:32;13.70;99.90
21207;DHT22;10761;48.532;8.026;2023-05-10T06:32:57;13.70;99.90
21207;DHT22;10761;48.532;8.026;2023-05-10T06:35:23;13.70;99.90
21207;DHT22;10761;48.532;8.026;2023-05-10T06:37:49;13.60;99.90
21207;DHT22;10761;48.532;8.026;2023-05-10T06:40:15;13.70;99.90
21207;DHT22;10761;48.532;8.026;2023-05-10T06:42:41;13.70;99.90
21207;DHT22;10761;48.532;8.026;2023-05-10T06:45:07;13.70;99.90
21207;DHT22;10761;48.532;8.026;2023-05-10T06:47:33;13.70;99.90
21207;DHT22;10761;48.532;8.026;2023-05-10T06:49:59;13.70;99.90
21207;DHT22;10761;48.532;8.026;2023-05-10T06:52:25;13.60;99.90
21207;DHT22;10761;48.532;8.026;2023-05-10T06:54:50;13.60;99.90
21207;DHT22;10761;48.532;8.026;2023-05-10T06:57:16;13.60;99.90
21207;DHT22;10761;48.532;8.026;2023-05-10T06:59:43;13.70;99.90
21207;DHT22;10761;48.532;8.026;2023-05-10T07:02:08;13.70;99.90
21207;DHT22;10761;48.532;8.026;2023-05-10T07:04:34;13.70;99.90
21207;DHT22;10761;48.532;8.026;2023-05-10T07:07:00;13.60;99.90
21207;DHT22;10761;48.532;8.026;2023-05-10T07:09:25;13.60;99.90
21207;DHT22;10761;48.532;8.026;2023-05-10T07:11:51;13.70;99.90
21207;DHT22;10761;48.532;8.026;2023-05-10T07:14:16;13.70;99.90
21207;DHT22;10761;48.532;8.026;2023-05-10T07:16:42;13.80;99.90
21207;DHT22;10761;48.532;8.026;2023-05-10T07:19:07;13.90;99.90
21207;DHT22;10761;48.532;8.026;2023-05-10T07:21:33;14.00;99.90
21207;DHT22;10761;48.532;8.026;2023-05-10T07:24:00;14.00;99.90
21207;DHT22;10761;48.532;8.026;2023-05-10T07:26:26;14.20;99.90
21207;DHT22;10761;48.532;8.026;2023-05-10T07:28:51;14.30;99.90
21207;DHT22;10761;48.532;8.026;2023-05-10T07:31:17;14.30;99.90
21207;DHT22;10761;48.532;8.026;2023-05-10T07:33:42;14.30;99.90
21207;DHT22;10761;48.532;8.026;2023-05-10T07:36:08;14.40;99.90
21207;DHT22;10761;48.532;8.026;2023-05-10T07:38:34;14.40;99.90
21207;DHT22;10761;48.532;8.026;2023-05-10T07:40:59;14.50;99.90
21207;DHT22;10761;48.532;8.026;2023-05-10T07:43:25;14.50;99.90
21207;DHT22;10761;48.532;8.026;2023-05-10T07:45:50;14.50;99.90
21207;DHT22;10761;48.532;8.026;2023-05-10T07:48:16;14.50;99.90
21207;DHT22;10761;48.532;8.026;2023-05-10T07:50:42;14.60;99.90
21207;DHT22;10761;48.532;8.026;2023-05-10T07:53:07;14.70;99.90
21207;DHT22;10761;48.532;8.026;2023-05-10T07:55:33;14.80;99.90
21207;DHT22;10761;48.532;8.026;2023-05-10T07:57:59;14.80;99.90
21207;DHT22;10761;48.532;8.026;2023-05-10T08:00:26;14.70;1.00
21207;DHT22;10761;48.532;8.026;2023-05-10T08:02:52;14.70;99.90
21207;DHT22;10761;48.532;8.026;2023-05-10T08:05:18;14.70;99.90
21207;DHT22;10761;48.532;8.026;2023-05-10T08:07:43;14.80;99.90
21207;DHT22;10761;48.532;8.026;2023-05-10T08:10:09;14.90;58.60
21207;DHT22;10761;48.532;8.026;2023-05-10T08:12:36;14.90;1.00
21207;DHT22;10761;48.532;8.026;2023-05-10T08:15:02;14.80;1.00
21207;DHT22;10761;48.532;8.026;2023-05-10T08:17:28;14.70;1.00
21207;DHT22;10761;48.532;8.026;2023-05-10T08:19:54;14.70;84.60
21207;DHT22;10761;48.532;8.026;2023-05-10T08:22:19;14.80;23.30
21207;DHT22;10761;48.532;8.026;2023-05-10T08:24:45;14.80;1.00
21207;DHT22;10761;48.532;8.026;2023-05-10T08:27:11;15.00;1.00
21207;DHT22;10761;48.532;8.026;2023-05-10T08:29:37;15.10;1.00
21207;DHT22;10761;48.532;8.026;2023-05-10T08:32:03;15.10;1.00
21207;DHT22;10761;48.532;8.026;2023-05-10T08:34:28;15.00;1.00
21207;DHT22;10761;48.532;8.026;2023-05-10T08:36:54;14.90;99.90
21207;DHT22;10761;48.532;8.026;2023-05-10T08:39:19;14.80;99.90
21207;DHT22;10761;48.532;8.026;2023-05-10T08:41:46;14.70;99.90
21207;DHT22;10761;48.532;8.026;2023-05-10T08:44:13;14.60;99.90
21207;DHT22;10761;48.532;8.026;2023-05-10T08:46:41;14.30;99.90
21207;DHT22;10761;48.532;8.026;2023-05-10T08:49:13;13.80;92.60
21207;DHT22;10761;48.532;8.026;2023-05-10T08:51:44;13.10;99.90
21207;DHT22;10761;48.532;8.026;2023-05-10T08:54:12;12.70;99.90
21207;DHT22;10761;48.532;8.026;2023-05-10T08:56:38;12.50;99.90
21207;DHT22;10761;48.532;8.026;2023-05-10T08:59:04;12.30;99.90
21207;DHT22;10761;48.532;8.026;2023-05-10T09:01:31;12.20;99.90
21207;DHT22;10761;48.532;8.026;2023-05-10T09:03:58;12.40;99.90
21207;DHT22;10761;48.532;8.026;2023-05-10T09:06:24;12.50;99.90
21207;DHT22;10761;48.532;8.026;2023-05-10T09:08:50;12.60;99.90
21207;DHT22;10761;48.532;8.026;2023-05-10T09:11:16;12.70;99.90
21207;DHT22;10761;48.532;8.026;2023-05-10T09:13:42;12.80;99.90
21207;DHT22;10761;48.532;8.026;2023-05-10T09:16:09;13.00;99.90
21207;DHT22;10761;48.532;8.026;2023-05-10T09:18:35;13.20;99.90
21207;DHT22;10761;48.532;8.026;2023-05-10T09:21:00;13.60;99.90
21207;DHT22;10761;48.532;8.026;2023-05-10T09:23:26;13.90;1.00
21207;DHT22;10761;48.532;8.026;2023-05-10T09:26:04;14.40;1.00
21207;DHT22;10761;48.532;8.026;2023-05-10T09:28:34;14.90;1.00
21207;DHT22;10761;48.532;8.026;2023-05-10T09:30:59;15.30;1.00
21207;DHT22;10761;48.532;8.026;2023-05-10T09:33:25;15.60;1.00
21207;DHT22;10761;48.532;8.026;2023-05-10T09:35:52;15.90;1.00
21207;DHT22;10761;48.532;8.026;2023-05-10T09:38:17;15.70;1.00
21207;DHT22;10761;48.532;8.026;2023-05-10T09:40:51;15.70;1.00
21207;DHT22;10761;48.532;8.026;2023-05-10T09:43:20;15.80;1.00
21207;DHT22;10761;48.532;8.026;2023-05-10T09:45:48;16.30;1.00
21207;DHT22;10761;48.532;8.026;2023-05-10T09:48:15;16.60;1.00
21207;DHT22;10761;48.532;8.026;2023-05-10T09:50:41;16.40;1.00
21207;DHT22;10761;48.532;8.026;2023-05-10T09:53:07;16.30;1.00
21207;DHT22;10761;48.532;8.026;2023-05-10T09:55:44;16.00;1.00
21207;DHT22;10761;48.532;8.026;2023-05-10T09:58:15;15.60;1.00
21207;DHT22;10761;48.532;8.026;2023-05-10T10:00:43;15.00;1.00
21207;DHT22;10761;48.532;8.026;2023-05-10T10:03:14;14.60;1.00
21207;DHT22;10761;48.532;8.026;2023-05-10T10:05:41;14.40;99.90
21207;DHT22;10761;48.532;8.026;2023-05-10T10:08:10;14.30;46.10
21207;DHT22;10761;48.532;8.026;2023-05-10T10:10:37;14.20;1.00
21207;DHT22;10761;48.532;8.026;2023-05-10T10:13:06;14.30;1.00
21207;DHT22;10761;48.532;8.026;2023-05-10T10:15:33;14.40;1.00
21207;DHT22;10761;48.532;8.026;2023-05-10T10:17:59;14.50;1.00
21207;DHT22;10761;48.532;8.026;2023-05-10T10:20:26;14.70;1.00
21207;DHT22;10761;48.532;8.026;2023-05-10T10:22:52;14.90;1.00
21207;DHT22;10761;48.532;8.026;2023-05-10T10:25:19;15.10;1.00
21207;DHT22;10761;48.532;8.026;2023-05-10T10:30:42;15.40;1.00
21207;DHT22;10761;48.532;8.026;2023-05-10T10:36:02;15.40;1.00
21207;DHT22;10761;48.532;8.026;2023-05-10T10:41:28;15.00;1.00
21207;DHT22;10761;48.532;8.026;2023-05-10T10:49:30;14.80;1.00
21207;DHT22;10761;48.532;8.026;2023-05-10T10:57:24;14.80;13.00
21207;DHT22;10761;48.532;8.026;2023-05-10T11:00:00;15.00;1.00
21207;DHT22;10761;48.532;8.026;2023-05-10T11:08:26;16.00;1.00
21207;DHT22;10761;48.532;8.026;2023-05-10T11:11:05;16.60;99.90
21207;DHT22;10761;48.532;8.026;2023-05-10T11:13:46;17.40;99.90
21207;DHT22;10761;48.532;8.026;2023-05-10T11:16:21;18.00;1.00
21207;DHT22;10761;48.532;8.026;2023-05-10T11:19:12;17.90;1.00
21207;DHT22;10761;48.532;8.026;2023-05-10T11:24:34;16.80;95.10
21207;DHT22;10761;48.532;8.026;2023-05-10T11:27:01;16.60;70.60
21207;DHT22;10761;48.532;8.026;2023-05-10T11:29:26;16.40;99.90
21207;DHT22;10761;48.532;8.026;2023-05-10T11:31:52;16.80;1.00
21207;DHT22;10761;48.532;8.026;2023-05-10T11:34:29;17.50;1.00
21207;DHT22;10761;48.532;8.026;2023-05-10T11:37:01;18.00;1.00
21207;DHT22;10761;48.532;8.026;2023-05-10T11:39:28;17.90;1.00
21207;DHT22;10761;48.532;8.026;2023-05-10T11:41:54;17.70;99.90
21207;DHT22;10761;48.532;8.026;2023-05-10T11:44:20;17.40;99.90
21207;DHT22;10761;48.532;8.026;2023-05-10T11:46:45;17.30;99.90
21207;DHT22;10761;48.532;8.026;2023-05-10T11:49:11;17.30;99.90
21207;DHT22;10761;48.532;8.026;2023-05-10T11:51:38;17.30;1.00
21207;DHT22;10761;48.532;8.026;2023-05-10T11:54:09;16.90;1.00
21207;DHT22;10761;48.532;8.026;2023-05-10T11:56:36;16.80;99.90
21207;DHT22;10761;48.532;8.026;2023-05-10T11:59:01;16.90;99.90
21207;DHT22;10761;48.532;8.026;2023-05-10T12:01:28;17.20;64.90
21207;DHT22;10761;48.532;8.026;2023-05-10T12:03:56;17.20;1.00
21207;DHT22;10761;48.532;8.026;2023-05-10T12:06:27;17.20;1.00
21207;DHT22;10761;48.532;8.026;2023-05-10T12:08:53;17.30;1.00
21207;DHT22;10761;48.532;8.026;2023-05-10T12:11:19;17.40;1.00
21207;DHT22;10761;48.532;8.026;2023-05-10T12:13:47;17.40;1.00
21207;DHT22;10761;48.532;8.026;2023-05-10T12:16:21;17.50;1.00
21207;DHT22;10761;48.532;8.026;2023-05-10T12:18:50;17.60;1.00
21207;DHT22;10761;48.532;8.026;2023-05-10T12:21:16;17.50;1.00
21207;DHT22;10761;48.532;8.026;2023-05-10T12:23:45;17.50;1.00
21207;DHT22;10761;48.532;8.026;2023-05-10T12:26:11;17.40;1.00
21207;DHT22;10761;48.532;8.026;2023-05-10T12:28:37;17.30;1.00
21207;DHT22;10761;48.532;8.026;2023-05-10T12:31:06;17.50;1.00
21207;DHT22;10761;48.532;8.026;2023-05-10T12:33:42;17.40;1.00
21207;DHT22;10761;48.532;8.026;2023-05-10T12:36:09;17.40;1.00
21207;DHT22;10761;48.532;8.026;2023-05-10T12:38:40;17.20;1.00
21207;DHT22;10761;48.532;8.026;2023-05-10T12:41:16;17.10;1.00
21207;DHT22;10761;48.532;8.026;2023-05-10T12:43:42;16.90;1.00
21207;DHT22;10761;48.532;8.026;2023-05-10T12:46:10;16.90;1.00
21207;DHT22;10761;48.532;8.026;2023-05-10T12:48:36;16.90;1.00
21207;DHT22;10761;48.532;8.026;2023-05-10T12:51:03;17.00;1.00
21207;DHT22;10761;48.532;8.026;2023-05-10T12:53:29;17.10;1.00
21207;DHT22;10761;48.532;8.026;2023-05-10T12:55:55;17.00;1.00
21207;DHT22;10761;48.532;8.026;2023-05-10T12:58:20;17.00;1.00
21207;DHT22;10761;48.532;8.026;2023-05-10T13:00:46;17.10;1.00
21207;DHT22;10761;48.532;8.026;2023-05-10T13:03:12;17.00;1.00
21207;DHT22;10761;48.532;8.026;2023-05-10T13:05:38;16.90;1.00
21207;DHT22;10761;48.532;8.026;2023-05-10T13:08:04;17.00;1.00
21207;DHT22;10761;48.532;8.026;2023-05-10T13:10:31;17.20;1.00
21207;DHT22;10761;48.532;8.026;2023-05-10T13:12:57;17.30;1.00
21207;DHT22;10761;48.532;8.026;2023-05-10T13:15:23;17.10;1.00
21207;DHT22;10761;48.532;8.026;2023-05-10T13:17:49;17.20;1.00
21207;DHT22;10761;48.532;8.026;2023-05-10T13:20:15;17.30;1.00
21207;DHT22;10761;48.532;8.026;2023-05-10T13:22:42;17.40;1.00
21207;DHT22;10761;48.532;8.026;2023-05-10T13:25:08;17.60;1.00
21207;DHT22;10761;48.532;8.026;2023-05-10T13:27:34;17.80;1.00
21207;DHT22;10761;48.532;8.026;2023-05-10T13:29:59;18.10;1.00
21207;DHT22;10761;48.532;8.026;2023-05-10T13:32:25;18.40;1.00
21207;DHT22;10761;48.532;8.026;2023-05-10T13:34:51;19.10;1.00
21207;DHT22;10761;48.532;8.026;2023-05-10T13:37:17;19.40;1.00
21207;DHT22;10761;48.532;8.026;2023-05-10T13:39:43;19.20;1.00
21207;DHT22;10761;48.532;8.026;2023-05-10T13:42:08;18.80;1.00
21207;DHT22;10761;48.532;8.026;2023-05-10T13:44:34;19.00;1.00
21207;DHT22;10761;48.532;8.026;2023-05-10T13:46:59;19.20;1.00
21207;DHT22;10761;48.532;8.026;2023-05-10T13:49:25;19.30;1.00
21207;DHT22;10761;48.532;8.026;2023-05-10T13:51:51;19.00;1.00
21207;DHT22;10761;48.532;8.026;2023-05-10T13:54:17;18.70;1.00
21207;DHT22;10761;48.532;8.026;2023-05-10T13:56:45;18.60;1.00
21207;DHT22;10761;48.532;8.026;2023-05-10T13:59:12;18.60;1.00
21207;DHT22;10761;48.532;8.026;2023-05-10T14:01:39;18.90;1.00
21207;DHT22;10761;48.532;8.026;2023-05-10T14:04:05;19.60;1.00
21207;DHT22;10761;48.532;8.026;2023-05-10T14:06:32;20.00;1.00
21207;DHT22;10761;48.532;8.026;2023-05-10T14:09:00;19.80;1.00
21207;DHT22;10761;48.532;8.026;2023-05-10T14:11:29;19.30;1.00
21207;DHT22;10761;48.532;8.026;2023-05-10T14:13:55;18.90;1.00
21207;DHT22;10761;48.532;8.026;2023-05-10T14:16:20;18.70;1.00
21207;DHT22;10761;48.532;8.026;2023-05-10T14:18:46;18.60;1.00
21207;DHT22;10761;48.532;8.026;2023-05-10T14:21:12;18.70;1.00
21207;DHT22;10761;48.532;8.026;2023-05-10T14:23:38;19.10;1.00
21207;DHT22;10761;48.532;8.026;2023-05-10T14:26:03;19.60;1.00
21207;DHT22;10761;48.532;8.026;2023-05-10T14:28:29;19.40;1.00
21207;DHT22;10761;48.532;8.026;2023-05-10T14:30:55;18.90;1.00
21207;DHT22;10761;48.532;8.026;2023-05-10T14:33:20;18.70;1.00
21207;DHT22;10761;48.532;8.026;2023-05-10T14:35:47;18.80;1.00
21207;DHT22;10761;48.532;8.026;2023-05-10T14:38:13;19.00;1.00
21207;DHT22;10761;48.532;8.026;2023-05-10T14:40:39;19.70;1.00
21207;DHT22;10761;48.532;8.026;2023-05-10T14:43:04;20.20;1.00
21207;DHT22;10761;48.532;8.026;2023-05-10T14:45:30;20.60;1.00
21207;DHT22;10761;48.532;8.026;2023-05-10T14:47:56;20.70;1.00
21207;DHT22;10761;48.532;8.026;2023-05-10T14:50:22;20.90;1.00
21207;DHT22;10761;48.532;8.026;2023-05-10T14:52:48;21.20;1.00
21207;DHT22;10761;48.532;8.026;2023-05-10T14:55:14;21.30;1.00
21207;DHT22;10761;48.532;8.026;2023-05-10T14:57:40;21.40;1.00
21207;DHT22;10761;48.532;8.026;2023-05-10T15:00:06;21.40;1.00
21207;DHT22;10761;48.532;8.026;2023-05-10T15:02:32;21.10;1.00
21207;DHT22;10761;48.532;8.026;2023-05-10T15:04:58;20.80;1.00
21207;DHT22;10761;48.532;8.026;2023-05-10T15:07:24;20.50;1.00
21207;DHT22;10761;48.532;8.026;2023-05-10T15:09:50;19.80;1.00
21207;DHT22;10761;48.532;8.026;2023-05-10T15:12:17;19.20;1.00
21207;DHT22;10761;48.532;8.026;2023-05-10T15:14:43;18.50;1.00
21207;DHT22;10761;48.532;8.026;2023-05-10T15:17:09;17.90;1.00
21207;DHT22;10761;48.532;8.026;2023-05-10T15:19:35;17.20;1.00
21207;DHT22;10761;48.532;8.026;2023-05-10T15:22:01;16.40;99.90
21207;DHT22;10761;48.532;8.026;2023-05-10T15:24:27;15.40;1.00
21207;DHT22;10761;48.532;8.026;2023-05-10T15:26:53;14.80;99.90
21207;DHT22;10761;48.532;8.026;2023-05-10T15:29:19;14.80;1.00
21207;DHT22;10761;48.532;8.026;2023-05-10T15:31:48;14.90;1.00
21207;DHT22;10761;48.532;8.026;2023-05-10T15:34:14;15.00;99.90
21207;DHT22;10761;48.532;8.026;2023-05-10T15:36:40;15.00;1.00
21207;DHT22;10761;48.532;8.026;2023-05-10T15:39:05;15.20;1.00
21207;DHT22;10761;48.532;8.026;2023-05-10T15:41:31;15.20;99.90
21207;DHT22;10761;48.532;8.026;2023-05-10T15:43:57;15.30;99.90
21207;DHT22;10761;48.532;8.026;2023-05-10T15:46:25;15.40;1.00
21207;DHT22;10761;48.532;8.026;2023-05-10T15:48:51;15.30;15.20
21207;DHT22;10761;48.532;8.026;2023-05-10T15:51:17;15.30;1.00
21207;DHT22;10761;48.532;8.026;2023-05-10T15:53:44;15.40;99.90
21207;DHT22;10761;48.532;8.026;2023-05-10T15:56:09;15.40;1.00
21207;DHT22;10761;48.532;8.026;2023-05-10T15:58:36;15.30;1.00
21207;DHT22;10761;48.532;8.026;2023-05-10T16:01:03;15.30;99.90
21207;DHT22;10761;48.532;8.026;2023-05-10T16:03:30;15.30;99.90
21207;DHT22;10761;48.532;8.026;2023-05-10T16:05:56;15.30;86.10
21207;DHT22;10761;48.532;8.026;2023-05-10T16:08:21;15.30;1.00
21207;DHT22;10761;48.532;8.026;2023-05-10T16:10:48;15.20;1.00
21207;DHT22;10761;48.532;8.026;2023-05-10T16:13:14;15.00;99.90
21207;DHT22;10761;48.532;8.026;2023-05-10T16:15:40;14.90;90.00
21207;DHT22;10761;48.532;8.026;2023-05-10T16:18:06;14.70;1.00
21207;DHT22;10761;48.532;8.026;2023-05-10T16:20:32;14.40;1.00